sensor_id;sensor_type;location;lat;lon;timestamp;P1;durP1;ratioP1;P2;durP2;ratioP2
63005;SDS011;53704;52.532;6.426;2023-02-18T00:00:06;36.70;;;7.18;;
63005;SDS011;53704;52.532;6.426;2023-02-18T00:02:35;35.35;;;7.30;;
63005;SDS011;53704;52.532;6.426;2023-02-18T00:05:00;25.38;;;7.15;;
63005;SDS011;53704;52.532;6.426;2023-02-18T00:07:26;31.30;;;7.10;;
63005;SDS011;53704;52.532;6.426;2023-02-18T00:09:51;25.23;;;7.10;;
63005;SDS011;53704;52.532;6.426;2023-02-18T00:12:17;30.23;;;6.93;;
63005;SDS011;53704;52.532;6.426;2023-02-18T00:14:42;37.55;;;8.30;;
63005;SDS011;53704;52.532;6.426;2023-02-18T00:17:07;36.60;;;7.32;;
63005;SDS011;53704;52.532;6.426;2023-02-18T00:19:33;25.67;;;7.43;;
63005;SDS011;53704;52.532;6.426;2023-02-18T00:21:59;41.88;;;8.07;;
63005;SDS011;53704;52.532;6.426;2023-02-18T00:24:24;29.92;;;7.45;;
63005;SDS011;53704;52.532;6.426;2023-02-18T00:26:50;32.13;;;7.45;;
63005;SDS011;53704;52.532;6.426;2023-02-18T00:29:16;22.42;;;7.50;;
63005;SDS011;53704;52.532;6.426;2023-02-18T00:31:42;26.95;;;8.52;;
63005;SDS011;53704;52.532;6.426;2023-02-18T00:34:08;28.15;;;8.45;;
63005;SDS011;53704;52.532;6.426;2023-02-18T00:36:35;32.63;;;8.15;;
63005;SDS011;53704;52.532;6.426;2023-02-18T00:39:01;26.02;;;8.40;;
63005;SDS011;53704;52.532;6.426;2023-02-18T00:41:29;25.02;;;7.90;;
63005;SDS011;53704;52.532;6.426;2023-02-18T00:43:55;40.45;;;9.60;;
63005;SDS011;53704;52.532;6.426;2023-02-18T00:46:21;41.88;;;10.93;;
63005;SDS011;53704;52.532;6.426;2023-02-18T00:48:48;40.15;;;10.95;;
63005;SDS011;53704;52.532;6.426;2023-02-18T00:51:13;36.55;;;10.52;;
63005;SDS011;53704;52.532;6.426;2023-02-18T00:53:39;36.60;;;10.77;;
63005;SDS011;53704;52.532;6.426;2023-02-18T00:56:05;34.78;;;10.90;;
63005;SDS011;53704;52.532;6.426;2023-02-18T00:58:32;29.63;;;10.20;;
63005;SDS011;53704;52.532;6.426;2023-02-18T01:00:57;43.53;;;13.07;;
63005;SDS011;53704;52.532;6.426;2023-02-18T01:03:23;42.83;;;12.43;;
63005;SDS011;53704;52.532;6.426;2023-02-18T01:05:49;31.98;;;11.25;;
63005;SDS011;53704;52.532;6.426;2023-02-18T01:08:15;29.70;;;10.65;;
63005;SDS011;53704;52.532;6.426;2023-02-18T01:10:42;38.97;;;12.02;;
63005;SDS011;53704;52.532;6.426;2023-02-18T01:13:10;44.40;;;12.27;;
63005;SDS011;53704;52.532;6.426;2023-02-18T01:15:36;40.90;;;12.02;;
63005;SDS011;53704;52.532;6.426;2023-02-18T01:18:02;41.85;;;13.35;;
63005;SDS011;53704;52.532;6.426;2023-02-18T01:20:28;36.03;;;12.55;;
63005;SDS011;53704;52.532;6.426;2023-02-18T01:22:53;36.53;;;13.38;;
63005;SDS011;53704;52.532;6.426;2023-02-18T01:25:19;48.50;;;13.13;;
63005;SDS011;53704;52.532;6.426;2023-02-18T01:27:44;52.42;;;14.45;;
63005;SDS011;53704;52.532;6.426;2023-02-18T01:30:11;34.38;;;12.32;;
63005;SDS011;53704;52.532;6.426;2023-02-18T01:32:39;46.33;;;13.57;;
63005;SDS011;53704;52.532;6.426;2023-02-18T01:35:05;33.45;;;12.55;;
63005;SDS011;53704;52.532;6.426;2023-02-18T01:37:31;37.97;;;14.05;;
63005;SDS011;53704;52.532;6.426;2023-02-18T01:39:56;37.30;;;12.32;;
63005;SDS011;53704;52.532;6.426;2023-02-18T01:42:23;34.58;;;12.07;;
63005;SDS011;53704;52.532;6.426;2023-02-18T01:44:51;34.03;;;14.27;;
63005;SDS011;53704;52.532;6.426;2023-02-18T01:47:17;32.67;;;13.15;;
63005;SDS011;53704;52.532;6.426;2023-02-18T01:49:44;38.00;;;13.32;;
63005;SDS011;53704;52.532;6.426;2023-02-18T01:52:14;36.20;;;13.80;;
63005;SDS011;53704;52.532;6.426;2023-02-18T01:54:44;40.00;;;14.35;;
63005;SDS011;53704;52.532;6.426;2023-02-18T01:57:20;33.30;;;14.90;;
63005;SDS011;53704;52.532;6.426;2023-02-18T01:59:51;43.30;;;14.07;;
63005;SDS011;53704;52.532;6.426;2023-02-18T02:02:20;40.58;;;15.00;;
63005;SDS011;53704;52.532;6.426;2023-02-18T02:04:48;40.58;;;17.15;;
63005;SDS011;53704;52.532;6.426;2023-02-18T02:07:13;43.75;;;17.88;;
63005;SDS011;53704;52.532;6.426;2023-02-18T02:09:40;38.28;;;18.27;;
63005;SDS011;53704;52.532;6.426;2023-02-18T02:23:30;63.53;;;24.83;;
63005;SDS011;53704;52.532;6.426;2023-02-18T02:42:33;61.78;;;28.33;;
63005;SDS011;53704;52.532;6.426;2023-02-18T02:52:51;70.57;;;32.65;;
63005;SDS011;53704;52.532;6.426;2023-02-18T02:55:21;61.92;;;30.98;;
63005;SDS011;53704;52.532;6.426;2023-02-18T02:57:50;77.35;;;33.50;;
63005;SDS011;53704;52.532;6.426;2023-02-18T03:00:20;63.85;;;33.10;;
63005;SDS011;53704;52.532;6.426;2023-02-18T03:10:20;71.72;;;36.30;;
63005;SDS011;53704;52.532;6.426;2023-02-18T03:18:51;80.65;;;34.47;;
63005;SDS011;53704;52.532;6.426;2023-02-18T03:23:57;72.45;;;33.10;;
63005;SDS011;53704;52.532;6.426;2023-02-18T03:26:28;69.35;;;34.40;;
63005;SDS011;53704;52.532;6.426;2023-02-18T03:28:57;76.47;;;35.85;;
63005;SDS011;53704;52.532;6.426;2023-02-18T03:31:26;75.63;;;34.10;;
63005;SDS011;53704;52.532;6.426;2023-02-18T03:33:56;70.40;;;34.47;;
63005;SDS011;53704;52.532;6.426;2023-02-18T03:36:28;75.38;;;34.35;;
63005;SDS011;53704;52.532;6.426;2023-02-18T03:38:58;67.53;;;33.15;;
63005;SDS011;53704;52.532;6.426;2023-02-18T03:41:27;72.68;;;33.33;;
63005;SDS011;53704;52.532;6.426;2023-02-18T03:43:57;61.45;;;31.95;;
63005;SDS011;53704;52.532;6.426;2023-02-18T03:46:25;70.65;;;33.22;;
63005;SDS011;53704;52.532;6.426;2023-02-18T03:48:51;67.20;;;30.77;;
63005;SDS011;53704;52.532;6.426;2023-02-18T03:51:17;68.43;;;30.92;;
63005;SDS011;53704;52.532;6.426;2023-02-18T03:53:43;72.22;;;32.80;;
63005;SDS011;53704;52.532;6.426;2023-02-18T03:56:09;66.72;;;31.60;;
63005;SDS011;53704;52.532;6.426;2023-02-18T03:58:34;59.92;;;29.38;;
63005;SDS011;53704;52.532;6.426;2023-02-18T04:01:00;59.88;;;28.92;;
63005;SDS011;53704;52.532;6.426;2023-02-18T04:03:26;62.15;;;29.15;;
63005;SDS011;53704;52.532;6.426;2023-02-18T04:05:51;61.40;;;27.90;;
63005;SDS011;53704;52.532;6.426;2023-02-18T04:08:17;60.83;;;28.58;;
63005;SDS011;53704;52.532;6.426;2023-02-18T04:10:42;54.65;;;26.05;;
63005;SDS011;53704;52.532;6.426;2023-02-18T04:13:07;57.40;;;27.52;;
63005;SDS011;53704;52.532;6.426;2023-02-18T04:15:33;47.42;;;24.63;;
63005;SDS011;53704;52.532;6.426;2023-02-18T04:17:59;50.10;;;25.63;;
63005;SDS011;53704;52.532;6.426;2023-02-18T04:20:24;60.38;;;26.63;;
63005;SDS011;53704;52.532;6.426;2023-02-18T04:22:50;58.92;;;27.20;;
63005;SDS011;53704;52.532;6.426;2023-02-18T04:25:15;59.38;;;28.27;;
63005;SDS011;53704;52.532;6.426;2023-02-18T04:27:41;54.75;;;27.52;;
63005;SDS011;53704;52.532;6.426;2023-02-18T04:30:06;70.82;;;29.02;;
63005;SDS011;53704;52.532;6.426;2023-02-18T04:32:32;67.22;;;30.73;;
63005;SDS011;53704;52.532;6.426;2023-02-18T04:34:58;72.03;;;33.10;;
63005;SDS011;53704;52.532;6.426;2023-02-18T04:37:23;85.53;;;34.40;;
63005;SDS011;53704;52.532;6.426;2023-02-18T04:39:49;71.68;;;31.48;;
63005;SDS011;53704;52.532;6.426;2023-02-18T04:42:14;75.43;;;33.38;;
63005;SDS011;53704;52.532;6.426;2023-02-18T04:44:40;80.55;;;34.45;;
63005;SDS011;53704;52.532;6.426;2023-02-18T04:47:06;77.78;;;33.95;;
63005;SDS011;53704;52.532;6.426;2023-02-18T04:49:32;79.32;;;34.17;;
63005;SDS011;53704;52.532;6.426;2023-02-18T04:51:57;88.13;;;35.50;;
63005;SDS011;53704;52.532;6.426;2023-02-18T04:54:23;78.75;;;35.67;;
63005;SDS011;53704;52.532;6.426;2023-02-18T04:56:48;94.65;;;37.47;;
63005;SDS011;53704;52.532;6.426;2023-02-18T04:59:14;82.88;;;33.97;;
63005;SDS011;53704;52.532;6.426;2023-02-18T05:01:40;87.88;;;36.80;;
63005;SDS011;53704;52.532;6.426;2023-02-18T05:04:05;87.72;;;35.30;;
63005;SDS011;53704;52.532;6.426;2023-02-18T05:06:31;76.82;;;34.38;;
63005;SDS011;53704;52.532;6.426;2023-02-18T05:08:56;84.45;;;34.38;;
63005;SDS011;53704;52.532;6.426;2023-02-18T05:11:22;74.35;;;32.33;;
63005;SDS011;53704;52.532;6.426;2023-02-18T05:13:48;72.78;;;30.52;;
63005;SDS011;53704;52.532;6.426;2023-02-18T05:16:13;77.25;;;31.67;;
63005;SDS011;53704;52.532;6.426;2023-02-18T05:18:39;66.30;;;31.30;;
63005;SDS011;53704;52.532;6.426;2023-02-18T05:21:04;66.60;;;29.40;;
63005;SDS011;53704;52.532;6.426;2023-02-18T05:23:30;61.55;;;26.63;;
63005;SDS011;53704;52.532;6.426;2023-02-18T05:25:55;70.72;;;28.25;;
63005;SDS011;53704;52.532;6.426;2023-02-18T05:28:21;52.08;;;24.40;;
63005;SDS011;53704;52.532;6.426;2023-02-18T05:30:47;52.05;;;24.30;;
63005;SDS011;53704;52.532;6.426;2023-02-18T05:33:12;48.85;;;21.98;;
63005;SDS011;53704;52.532;6.426;2023-02-18T05:35:38;52.15;;;21.55;;
63005;SDS011;53704;52.532;6.426;2023-02-18T05:38:03;44.97;;;18.58;;
63005;SDS011;53704;52.532;6.426;2023-02-18T05:40:29;37.67;;;19.15;;
63005;SDS011;53704;52.532;6.426;2023-02-18T05:42:54;36.20;;;17.63;;
63005;SDS011;53704;52.532;6.426;2023-02-18T05:45:20;35.85;;;17.13;;
63005;SDS011;53704;52.532;6.426;2023-02-18T05:47:46;29.67;;;15.60;;
63005;SDS011;53704;52.532;6.426;2023-02-18T05:50:11;34.25;;;15.43;;
63005;SDS011;53704;52.532;6.426;2023-02-18T05:52:37;28.45;;;13.20;;
63005;SDS011;53704;52.532;6.426;2023-02-18T05:55:02;27.95;;;13.35;;
63005;SDS011;53704;52.532;6.426;2023-02-18T05:57:28;21.50;;;12.60;;
63005;SDS011;53704;52.532;6.426;2023-02-18T05:59:54;21.30;;;13.63;;
63005;SDS011;53704;52.532;6.426;2023-02-18T06:02:19;24.33;;;11.10;;
63005;SDS011;53704;52.532;6.426;2023-02-18T06:04:44;19.10;;;10.98;;
63005;SDS011;53704;52.532;6.426;2023-02-18T06:07:10;18.23;;;10.90;;
63005;SDS011;53704;52.532;6.426;2023-02-18T06:09:35;20.65;;;11.05;;
63005;SDS011;53704;52.532;6.426;2023-02-18T06:12:01;18.00;;;10.73;;
63005;SDS011;53704;52.532;6.426;2023-02-18T06:14:26;23.48;;;9.70;;
63005;SDS011;53704;52.532;6.426;2023-02-18T06:16:52;16.08;;;9.48;;
63005;SDS011;53704;52.532;6.426;2023-02-18T06:19:17;16.42;;;9.32;;
63005;SDS011;53704;52.532;6.426;2023-02-18T06:21:43;15.05;;;8.88;;
63005;SDS011;53704;52.532;6.426;2023-02-18T06:24:08;12.68;;;7.95;;
63005;SDS011;53704;52.532;6.426;2023-02-18T06:26:33;11.45;;;8.15;;
63005;SDS011;53704;52.532;6.426;2023-02-18T06:28:59;11.50;;;8.00;;
63005;SDS011;53704;52.532;6.426;2023-02-18T06:31:24;11.43;;;7.72;;
63005;SDS011;53704;52.532;6.426;2023-02-18T06:33:50;10.30;;;8.25;;
63005;SDS011;53704;52.532;6.426;2023-02-18T06:36:15;9.70;;;8.02;;
63005;SDS011;53704;52.532;6.426;2023-02-18T06:38:42;9.60;;;7.50;;
63005;SDS011;53704;52.532;6.426;2023-02-18T06:41:09;9.80;;;8.38;;
63005;SDS011;53704;52.532;6.426;2023-02-18T06:43:36;9.02;;;8.18;;
63005;SDS011;53704;52.532;6.426;2023-02-18T06:46:02;14.73;;;8.90;;
63005;SDS011;53704;52.532;6.426;2023-02-18T06:48:28;10.85;;;9.77;;
63005;SDS011;53704;52.532;6.426;2023-02-18T06:50:54;9.95;;;8.70;;
63005;SDS011;53704;52.532;6.426;2023-02-18T06:53:19;19.33;;;10.43;;
63005;SDS011;53704;52.532;6.426;2023-02-18T06:55:45;12.48;;;10.18;;
63005;SDS011;53704;52.532;6.426;2023-02-18T06:58:11;14.90;;;9.57;;
63005;SDS011;53704;52.532;6.426;2023-02-18T07:00:37;12.85;;;10.52;;
63005;SDS011;53704;52.532;6.426;2023-02-18T07:03:03;10.85;;;9.57;;
63005;SDS011;53704;52.532;6.426;2023-02-18T07:05:29;11.23;;;9.70;;
63005;SDS011;53704;52.532;6.426;2023-02-18T07:07:54;9.95;;;8.93;;
63005;SDS011;53704;52.532;6.426;2023-02-18T07:10:20;12.60;;;9.13;;
63005;SDS011;53704;52.532;6.426;2023-02-18T07:12:45;17.38;;;9.77;;
63005;SDS011;53704;52.532;6.426;2023-02-18T07:15:11;10.50;;;8.70;;
63005;SDS011;53704;52.532;6.426;2023-02-18T07:17:37;11.00;;;9.20;;
63005;SDS011;53704;52.532;6.426;2023-02-18T07:20:03;22.65;;;9.50;;
63005;SDS011;53704;52.532;6.426;2023-02-18T07:22:29;11.45;;;9.15;;
63005;SDS011;53704;52.532;6.426;2023-02-18T07:24:55;13.80;;;9.98;;
63005;SDS011;53704;52.532;6.426;2023-02-18T07:27:21;12.38;;;9.55;;
63005;SDS011;53704;52.532;6.426;2023-02-18T07:29:47;12.90;;;9.55;;
63005;SDS011;53704;52.532;6.426;2023-02-18T07:32:14;14.57;;;8.90;;
63005;SDS011;53704;52.532;6.426;2023-02-18T07:34:40;18.63;;;9.43;;
63005;SDS011;53704;52.532;6.426;2023-02-18T07:37:06;17.05;;;10.40;;
63005;SDS011;53704;52.532;6.426;2023-02-18T07:39:42;18.02;;;9.35;;
63005;SDS011;53704;52.532;6.426;2023-02-18T07:42:11;21.17;;;9.88;;
63005;SDS011;53704;52.532;6.426;2023-02-18T07:44:38;22.85;;;10.68;;
63005;SDS011;53704;52.532;6.426;2023-02-18T07:47:05;21.95;;;10.73;;
63005;SDS011;53704;52.532;6.426;2023-02-18T07:49:31;21.60;;;11.35;;
63005;SDS011;53704;52.532;6.426;2023-02-18T07:51:57;15.65;;;11.48;;
63005;SDS011;53704;52.532;6.426;2023-02-18T07:54:23;16.63;;;11.07;;
63005;SDS011;53704;52.532;6.426;2023-02-18T07:56:49;23.48;;;12.73;;
63005;SDS011;53704;52.532;6.426;2023-02-18T07:59:14;21.92;;;12.18;;
63005;SDS011;53704;52.532;6.426;2023-02-18T08:01:40;22.02;;;12.57;;
63005;SDS011;53704;52.532;6.426;2023-02-18T08:04:06;26.75;;;13.63;;
63005;SDS011;53704;52.532;6.426;2023-02-18T08:06:33;18.77;;;12.65;;
63005;SDS011;53704;52.532;6.426;2023-02-18T08:09:02;18.23;;;12.68;;
63005;SDS011;53704;52.532;6.426;2023-02-18T08:11:27;20.05;;;13.63;;
63005;SDS011;53704;52.532;6.426;2023-02-18T08:13:53;14.57;;;11.70;;
63005;SDS011;53704;52.532;6.426;2023-02-18T08:16:19;24.48;;;13.50;;
63005;SDS011;53704;52.532;6.426;2023-02-18T08:18:45;21.92;;;12.60;;
63005;SDS011;53704;52.532;6.426;2023-02-18T08:21:15;21.15;;;12.57;;
63005;SDS011;53704;52.532;6.426;2023-02-18T08:23:41;17.90;;;11.60;;
63005;SDS011;53704;52.532;6.426;2023-02-18T08:26:07;21.67;;;13.10;;
63005;SDS011;53704;52.532;6.426;2023-02-18T08:28:34;17.85;;;12.23;;
63005;SDS011;53704;52.532;6.426;2023-02-18T08:30:59;14.35;;;11.10;;
63005;SDS011;53704;52.532;6.426;2023-02-18T08:33:25;22.15;;;11.20;;
63005;SDS011;53704;52.532;6.426;2023-02-18T08:35:51;13.43;;;9.18;;
63005;SDS011;53704;52.532;6.426;2023-02-18T08:38:19;13.00;;;9.60;;
63005;SDS011;53704;52.532;6.426;2023-02-18T08:40:45;14.45;;;10.23;;
63005;SDS011;53704;52.532;6.426;2023-02-18T08:43:11;13.80;;;8.93;;
63005;SDS011;53704;52.532;6.426;2023-02-18T08:45:37;18.25;;;8.82;;
63005;SDS011;53704;52.532;6.426;2023-02-18T08:48:04;15.65;;;8.70;;
63005;SDS011;53704;52.532;6.426;2023-02-18T08:50:30;14.98;;;7.75;;
63005;SDS011;53704;52.532;6.426;2023-02-18T08:52:56;13.00;;;7.45;;
63005;SDS011;53704;52.532;6.426;2023-02-18T08:55:25;15.57;;;7.72;;
63005;SDS011;53704;52.532;6.426;2023-02-18T08:57:50;10.45;;;7.50;;
63005;SDS011;53704;52.532;6.426;2023-02-18T09:00:16;13.43;;;6.70;;
63005;SDS011;53704;52.532;6.426;2023-02-18T09:02:42;15.35;;;7.95;;
63005;SDS011;53704;52.532;6.426;2023-02-18T09:05:08;14.25;;;6.88;;
63005;SDS011;53704;52.532;6.426;2023-02-18T09:07:34;20.83;;;7.28;;
63005;SDS011;53704;52.532;6.426;2023-02-18T09:10:00;16.13;;;7.80;;
63005;SDS011;53704;52.532;6.426;2023-02-18T09:12:26;21.85;;;6.28;;
63005;SDS011;53704;52.532;6.426;2023-02-18T09:14:52;22.75;;;7.15;;
63005;SDS011;53704;52.532;6.426;2023-02-18T09:17:18;20.42;;;5.97;;
63005;SDS011;53704;52.532;6.426;2023-02-18T09:19:44;11.20;;;5.18;;
63005;SDS011;53704;52.532;6.426;2023-02-18T09:22:09;14.02;;;4.55;;
63005;SDS011;53704;52.532;6.426;2023-02-18T09:24:38;14.20;;;4.00;;
63005;SDS011;53704;52.532;6.426;2023-02-18T09:27:04;9.10;;;3.40;;
63005;SDS011;53704;52.532;6.426;2023-02-18T09:29:31;7.43;;;3.17;;
63005;SDS011;53704;52.532;6.426;2023-02-18T09:32:01;16.88;;;3.47;;
63005;SDS011;53704;52.532;6.426;2023-02-18T09:34:26;15.90;;;3.28;;
63005;SDS011;53704;52.532;6.426;2023-02-18T09:36:52;8.85;;;2.90;;
63005;SDS011;53704;52.532;6.426;2023-02-18T09:39:18;18.50;;;4.50;;
63005;SDS011;53704;52.532;6.426;2023-02-18T09:41:45;16.08;;;3.42;;
63005;SDS011;53704;52.532;6.426;2023-02-18T09:44:29;21.13;;;4.10;;
63005;SDS011;53704;52.532;6.426;2023-02-18T09:46:59;11.13;;;2.80;;
63005;SDS011;53704;52.532;6.426;2023-02-18T09:49:30;17.85;;;3.28;;
63005;SDS011;53704;52.532;6.426;2023-02-18T09:52:05;17.75;;;3.95;;
63005;SDS011;53704;52.532;6.426;2023-02-18T09:54:31;17.48;;;3.17;;
63005;SDS011;53704;52.532;6.426;2023-02-18T09:56:56;24.70;;;4.03;;
63005;SDS011;53704;52.532;6.426;2023-02-18T09:59:23;15.00;;;3.22;;
63005;SDS011;53704;52.532;6.426;2023-02-18T10:01:51;15.23;;;3.10;;
63005;SDS011;53704;52.532;6.426;2023-02-18T10:04:29;19.05;;;3.30;;
63005;SDS011;53704;52.532;6.426;2023-02-18T10:07:01;19.80;;;3.50;;
63005;SDS011;53704;52.532;6.426;2023-02-18T10:09:32;13.07;;;3.47;;
63005;SDS011;53704;52.532;6.426;2023-02-18T10:14:38;20.80;;;3.67;;
63005;SDS011;53704;52.532;6.426;2023-02-18T10:17:04;20.40;;;3.75;;
63005;SDS011;53704;52.532;6.426;2023-02-18T10:19:32;27.65;;;3.60;;
63005;SDS011;53704;52.532;6.426;2023-02-18T10:22:02;22.20;;;3.20;;
63005;SDS011;53704;52.532;6.426;2023-02-18T10:24:43;26.08;;;3.45;;
63005;SDS011;53704;52.532;6.426;2023-02-18T10:27:17;20.17;;;3.28;;
63005;SDS011;53704;52.532;6.426;2023-02-18T10:29:49;22.30;;;4.00;;
63005;SDS011;53704;52.532;6.426;2023-02-18T10:32:18;21.05;;;3.83;;
63005;SDS011;53704;52.532;6.426;2023-02-18T10:34:49;30.35;;;4.72;;
63005;SDS011;53704;52.532;6.426;2023-02-18T10:40:23;18.80;;;3.42;;
63005;SDS011;53704;52.532;6.426;2023-02-18T10:48:46;19.60;;;3.55;;
63005;SDS011;53704;52.532;6.426;2023-02-18T10:51:14;18.92;;;3.33;;
63005;SDS011;53704;52.532;6.426;2023-02-18T10:53:52;19.98;;;2.97;;
63005;SDS011;53704;52.532;6.426;2023-02-18T10:59:11;21.63;;;3.92;;
63005;SDS011;53704;52.532;6.426;2023-02-18T11:01:39;14.13;;;2.83;;
63005;SDS011;53704;52.532;6.426;2023-02-18T11:04:10;21.17;;;3.28;;
63005;SDS011;53704;52.532;6.426;2023-02-18T11:06:51;32.27;;;3.43;;
63005;SDS011;53704;52.532;6.426;2023-02-18T11:09:23;23.70;;;4.00;;
63005;SDS011;53704;52.532;6.426;2023-02-18T11:12:00;16.63;;;3.42;;
63005;SDS011;53704;52.532;6.426;2023-02-18T11:14:36;19.33;;;2.90;;
63005;SDS011;53704;52.532;6.426;2023-02-18T11:17:21;17.63;;;3.10;;
63005;SDS011;53704;52.532;6.426;2023-02-18T11:19:52;21.88;;;3.70;;
63005;SDS011;53704;52.532;6.426;2023-02-18T11:24:45;19.15;;;3.20;;
63005;SDS011;53704;52.532;6.426;2023-02-18T11:27:25;16.70;;;2.20;;
63005;SDS011;53704;52.532;6.426;2023-02-18T11:29:53;22.20;;;3.97;;
63005;SDS011;53704;52.532;6.426;2023-02-18T11:32:28;22.90;;;3.97;;
63005;SDS011;53704;52.532;6.426;2023-02-18T11:34:54;19.67;;;3.25;;
63005;SDS011;53704;52.532;6.426;2023-02-18T11:37:20;17.63;;;4.15;;
63005;SDS011;53704;52.532;6.426;2023-02-18T11:39:49;19.60;;;3.63;;
63005;SDS011;53704;52.532;6.426;2023-02-18T11:42:20;13.93;;;3.08;;
63005;SDS011;53704;52.532;6.426;2023-02-18T11:44:51;19.00;;;3.60;;
63005;SDS011;53704;52.532;6.426;2023-02-18T11:47:31;21.25;;;3.78;;
63005;SDS011;53704;52.532;6.426;2023-02-18T11:50:13;17.35;;;3.38;;
63005;SDS011;53704;52.532;6.426;2023-02-18T11:52:44;15.73;;;3.08;;
63005;SDS011;53704;52.532;6.426;2023-02-18T11:55:19;28.55;;;3.45;;
63005;SDS011;53704;52.532;6.426;2023-02-18T11:57:58;20.17;;;3.15;;
63005;SDS011;53704;52.532;6.426;2023-02-18T12:03:00;20.38;;;3.60;;
63005;SDS011;53704;52.532;6.426;2023-02-18T12:05:29;16.95;;;3.30;;
63005;SDS011;53704;52.532;6.426;2023-02-18T12:10:33;18.65;;;3.08;;
63005;SDS011;53704;52.532;6.426;2023-02-18T12:13:17;16.60;;;3.30;;
63005;SDS011;53704;52.532;6.426;2023-02-18T12:21:54;9.23;;;2.58;;
63005;SDS011;53704;52.532;6.426;2023-02-18T12:24:28;11.35;;;3.38;;
63005;SDS011;53704;52.532;6.426;2023-02-18T12:33:07;12.75;;;2.95;;
63005;SDS011;53704;52.532;6.426;2023-02-18T12:41:58;20.67;;;3.92;;
63005;SDS011;53704;52.532;6.426;2023-02-18T12:47:05;12.85;;;3.13;;
63005;SDS011;53704;52.532;6.426;2023-02-18T12:55:00;14.77;;;3.15;;
63005;SDS011;53704;52.532;6.426;2023-02-18T12:57:33;15.55;;;3.58;;
63005;SDS011;53704;52.532;6.426;2023-02-18T13:10:28;13.88;;;3.20;;
63005;SDS011;53704;52.532;6.426;2023-02-18T13:15:45;21.55;;;3.22;;
63005;SDS011;53704;52.532;6.426;2023-02-18T13:21:19;12.35;;;2.60;;
63005;SDS011;53704;52.532;6.426;2023-02-18T13:26:21;11.00;;;3.25;;
63005;SDS011;53704;52.532;6.426;2023-02-18T13:31:46;15.27;;;3.27;;
63005;SDS011;53704;52.532;6.426;2023-02-18T13:34:36;16.27;;;3.63;;
63005;SDS011;53704;52.532;6.426;2023-02-18T13:37:26;17.05;;;3.92;;
63005;SDS011;53704;52.532;6.426;2023-02-18T13:40:00;17.77;;;3.40;;
63005;SDS011;53704;52.532;6.426;2023-02-18T13:47:37;12.73;;;2.80;;
63005;SDS011;53704;52.532;6.426;2023-02-18T13:55:45;11.55;;;2.83;;
63005;SDS011;53704;52.532;6.426;2023-02-18T13:58:14;17.10;;;2.70;;
63005;SDS011;53704;52.532;6.426;2023-02-18T14:00:45;12.15;;;2.83;;
63005;SDS011;53704;52.532;6.426;2023-02-18T14:05:59;18.25;;;3.28;;
63005;SDS011;53704;52.532;6.426;2023-02-18T14:08:35;13.80;;;3.13;;
63005;SDS011;53704;52.532;6.426;2023-02-18T14:16:20;22.30;;;2.88;;
63005;SDS011;53704;52.532;6.426;2023-02-18T14:21:36;10.30;;;2.80;;
63005;SDS011;53704;52.532;6.426;2023-02-18T14:24:04;10.48;;;2.70;;
63005;SDS011;53704;52.532;6.426;2023-02-18T14:26:34;12.00;;;3.08;;
63005;SDS011;53704;52.532;6.426;2023-02-18T14:31:56;11.73;;;2.92;;
63005;SDS011;53704;52.532;6.426;2023-02-18T14:34:29;16.58;;;2.88;;
63005;SDS011;53704;52.532;6.426;2023-02-18T14:45:18;14.25;;;3.42;;
63005;SDS011;53704;52.532;6.426;2023-02-18T14:50:25;12.80;;;2.83;;
63005;SDS011;53704;52.532;6.426;2023-02-18T14:52:52;14.68;;;3.15;;
63005;SDS011;53704;52.532;6.426;2023-02-18T14:55:32;13.63;;;3.30;;
63005;SDS011;53704;52.532;6.426;2023-02-18T14:58:12;23.85;;;3.40;;
63005;SDS011;53704;52.532;6.426;2023-02-18T15:00:42;12.93;;;3.08;;
63005;SDS011;53704;52.532;6.426;2023-02-18T15:03:12;22.00;;;3.05;;
63005;SDS011;53704;52.532;6.426;2023-02-18T15:05:43;15.40;;;3.35;;
63005;SDS011;53704;52.532;6.426;2023-02-18T15:08:35;15.15;;;3.72;;
63005;SDS011;53704;52.532;6.426;2023-02-18T15:11:01;11.50;;;3.47;;
63005;SDS011;53704;52.532;6.426;2023-02-18T15:13:31;14.35;;;3.08;;
63005;SDS011;53704;52.532;6.426;2023-02-18T15:16:01;24.63;;;3.30;;
63005;SDS011;53704;52.532;6.426;2023-02-18T15:19:14;17.65;;;3.83;;
63005;SDS011;53704;52.532;6.426;2023-02-18T15:21:22;24.83;;;5.93;;
63005;SDS011;53704;52.532;6.426;2023-02-18T15:23:51;14.45;;;4.50;;
63005;SDS011;53704;52.532;6.426;2023-02-18T15:26:18;15.73;;;3.30;;
63005;SDS011;53704;52.532;6.426;2023-02-18T15:28:57;14.38;;;2.58;;
63005;SDS011;53704;52.532;6.426;2023-02-18T15:31:28;14.30;;;2.75;;
63005;SDS011;53704;52.532;6.426;2023-02-18T15:33:59;10.90;;;2.80;;
63005;SDS011;53704;52.532;6.426;2023-02-18T15:36:25;12.95;;;3.50;;
63005;SDS011;53704;52.532;6.426;2023-02-18T15:38:51;16.60;;;4.82;;
63005;SDS011;53704;52.532;6.426;2023-02-18T15:41:17;19.77;;;3.15;;
63005;SDS011;53704;52.532;6.426;2023-02-18T15:43:52;12.60;;;2.97;;
63005;SDS011;53704;52.532;6.426;2023-02-18T15:46:19;23.25;;;3.28;;
63005;SDS011;53704;52.532;6.426;2023-02-18T15:48:47;26.13;;;3.58;;
63005;SDS011;53704;52.532;6.426;2023-02-18T15:51:24;15.57;;;3.40;;
63005;SDS011;53704;52.532;6.426;2023-02-18T15:53:53;6.13;;;1.95;;
63005;SDS011;53704;52.532;6.426;2023-02-18T15:56:29;17.60;;;3.40;;
63005;SDS011;53704;52.532;6.426;2023-02-18T15:59:59;23.70;;;8.18;;
63005;SDS011;53704;52.532;6.426;2023-02-18T16:02:08;17.08;;;7.90;;
63005;SDS011;53704;52.532;6.426;2023-02-18T16:04:41;11.10;;;2.42;;
63005;SDS011;53704;52.532;6.426;2023-02-18T16:07:18;11.32;;;2.88;;
63005;SDS011;53704;52.532;6.426;2023-02-18T16:09:47;9.95;;;2.25;;
63005;SDS011;53704;52.532;6.426;2023-02-18T16:12:16;13.15;;;2.75;;
63005;SDS011;53704;52.532;6.426;2023-02-18T16:14:55;14.02;;;2.35;;
63005;SDS011;53704;52.532;6.426;2023-02-18T16:17:23;15.63;;;2.75;;
63005;SDS011;53704;52.532;6.426;2023-02-18T16:19:54;13.07;;;2.85;;
63005;SDS011;53704;52.532;6.426;2023-02-18T16:30:23;23.85;;;2.85;;
63005;SDS011;53704;52.532;6.426;2023-02-18T16:32:51;16.30;;;2.80;;
63005;SDS011;53704;52.532;6.426;2023-02-18T16:35:19;23.65;;;3.63;;
63005;SDS011;53704;52.532;6.426;2023-02-18T16:37:46;8.93;;;2.38;;
63005;SDS011;53704;52.532;6.426;2023-02-18T16:40:22;20.60;;;2.97;;
63005;SDS011;53704;52.532;6.426;2023-02-18T16:42:51;15.23;;;2.88;;
63005;SDS011;53704;52.532;6.426;2023-02-18T16:45:17;16.42;;;2.47;;
63005;SDS011;53704;52.532;6.426;2023-02-18T16:47:44;10.57;;;2.85;;
63005;SDS011;53704;52.532;6.426;2023-02-18T16:50:20;17.30;;;3.10;;
63005;SDS011;53704;52.532;6.426;2023-02-18T16:52:46;14.25;;;2.58;;
63005;SDS011;53704;52.532;6.426;2023-02-18T16:55:17;16.25;;;3.30;;
63005;SDS011;53704;52.532;6.426;2023-02-18T16:57:44;15.23;;;3.78;;
63005;SDS011;53704;52.532;6.426;2023-02-18T17:00:10;16.77;;;3.60;;
63005;SDS011;53704;52.532;6.426;2023-02-18T17:02:36;16.90;;;3.30;;
63005;SDS011;53704;52.532;6.426;2023-02-18T17:05:02;10.52;;;2.60;;
63005;SDS011;53704;52.532;6.426;2023-02-18T17:07:27;23.83;;;4.03;;
63005;SDS011;53704;52.532;6.426;2023-02-18T17:09:56;17.80;;;4.10;;
63005;SDS011;53704;52.532;6.426;2023-02-18T17:12:22;16.77;;;2.97;;
63005;SDS011;53704;52.532;6.426;2023-02-18T17:14:48;14.77;;;2.90;;
63005;SDS011;53704;52.532;6.426;2023-02-18T17:17:14;22.98;;;3.10;;
63005;SDS011;53704;52.532;6.426;2023-02-18T17:19:42;10.43;;;2.60;;
63005;SDS011;53704;52.532;6.426;2023-02-18T17:22:08;16.63;;;4.45;;